createdAt,value
2022-10-09T00:01:02.029Z,4.40
2022-10-09T00:02:04.927Z,4.23
2022-10-09T00:03:07.561Z,4.37
2022-10-09T00:04:09.214Z,4.50
2022-10-09T00:05:10.962Z,5.10
2022-10-09T00:06:17.638Z,4.60
2022-10-09T00:07:19.330Z,4.40
2022-10-09T00:08:21.055Z,4.50
2022-10-09T00:09:22.714Z,5.03
2022-10-09T00:10:24.399Z,4.13
2022-10-09T00:11:27.687Z,4.27
2022-10-09T00:12:29.360Z,4.37
2022-10-09T00:13:31.103Z,4.10
2022-10-09T00:14:32.798Z,4.70
2022-10-09T00:15:42.302Z,4.30
2022-10-09T00:16:44.188Z,4.57
2022-10-09T00:17:45.940Z,4.57
2022-10-09T00:18:47.957Z,4.90
2022-10-09T00:19:49.632Z,4.70
2022-10-09T00:20:51.373Z,5.27
2022-10-09T00:21:53.049Z,4.40
2022-10-09T00:22:54.835Z,4.87
2022-10-09T00:23:58.697Z,4.47
2022-10-09T00:25:00.455Z,4.10
2022-10-09T00:26:02.524Z,4.50
2022-10-09T00:27:04.288Z,4.40
2022-10-09T00:28:06.083Z,4.97
2022-10-09T00:29:07.794Z,5.10
2022-10-09T00:30:09.850Z,4.37
2022-10-09T00:31:12.360Z,4.40
2022-10-09T00:32:14.098Z,4.33
2022-10-09T00:33:15.899Z,4.17
2022-10-09T00:34:17.592Z,4.40
2022-10-09T00:35:19.607Z,4.40
2022-10-09T00:36:24.024Z,4.77
2022-10-09T00:37:25.769Z,4.13
2022-10-09T00:38:28.591Z,4.00
2022-10-09T00:39:30.976Z,4.27
2022-10-09T00:40:33.127Z,4.07
2022-10-09T00:41:35.205Z,4.23
2022-10-09T00:42:36.971Z,4.13
2022-10-09T00:43:46.202Z,4.03
2022-10-09T00:44:57.142Z,4.03
2022-10-09T00:45:58.889Z,4.23
2022-10-09T00:47:00.650Z,4.23
2022-10-09T00:48:06.772Z,4.23
2022-10-09T00:49:20.447Z,4.70
2022-10-09T00:50:24.629Z,4.30
2022-10-09T00:51:27.182Z,4.40
2022-10-09T00:52:29.459Z,4.27
2022-10-09T00:53:31.449Z,4.10
2022-10-09T00:54:37.040Z,4.20
2022-10-09T00:55:39.625Z,4.57
2022-10-09T00:56:41.854Z,3.90
2022-10-09T00:57:44.245Z,4.00
2022-10-09T00:58:52.588Z,3.80
2022-10-09T00:59:54.619Z,4.10
2022-10-09T01:00:56.451Z,3.80
2022-10-09T01:01:58.402Z,4.60
2022-10-09T01:03:00.268Z,4.20
2022-10-09T01:04:02.002Z,4.00
2022-10-09T01:05:04.264Z,4.50
2022-10-09T01:06:14.948Z,4.20
2022-10-09T01:07:19.460Z,4.43
2022-10-09T01:08:42.074Z,4.17
2022-10-09T01:10:11.719Z,4.30
2022-10-09T01:11:38.812Z,3.77
2022-10-09T01:12:49.819Z,4.03
2022-10-09T01:14:03.687Z,4.10
2022-10-09T01:15:25.271Z,4.17
2022-10-09T01:16:36.692Z,4.10
2022-10-09T01:17:57.623Z,4.33
2022-10-09T01:19:27.986Z,3.80
2022-10-09T01:20:44.465Z,4.17
2022-10-09T01:22:13.493Z,3.70
2022-10-09T01:23:34.177Z,3.77
2022-10-09T01:24:44.915Z,4.13
2022-10-09T01:26:15.747Z,4.53
2022-10-09T01:27:23.481Z,3.90
2022-10-09T01:28:30.841Z,3.90
2022-10-09T01:29:40.844Z,4.47
2022-10-09T01:30:43.170Z,3.80
2022-10-09T01:31:48.695Z,4.17
2022-10-09T01:32:53.389Z,3.50
2022-10-09T01:33:55.191Z,4.33
2022-10-09T01:34:57.867Z,4.20
2022-10-09T01:36:01.462Z,4.30
2022-10-09T01:37:04.182Z,4.60
2022-10-09T01:38:07.138Z,4.60
2022-10-09T01:39:12.864Z,4.33
2022-10-09T01:40:16.936Z,5.03
2022-10-09T01:41:19.504Z,4.50
2022-10-09T01:42:24.090Z,4.90
2022-10-09T01:43:25.731Z,5.10
2022-10-09T01:44:32.438Z,5.27
2022-10-09T01:45:43.409Z,4.83
2022-10-09T01:46:45.839Z,4.30
2022-10-09T01:47:47.632Z,4.63
2022-10-09T01:49:23.155Z,4.17
2022-10-09T01:50:34.475Z,4.40
2022-10-09T01:52:01.598Z,4.53
2022-10-09T01:53:08.873Z,4.77
2022-10-09T01:54:14.969Z,4.20
2022-10-09T01:55:44.062Z,4.60
2022-10-09T01:56:49.664Z,4.37
2022-10-09T01:58:01.864Z,4.17
2022-10-09T01:59:15.490Z,4.40
2022-10-09T02:00:18.420Z,3.63
2022-10-09T02:01:31.307Z,4.30
2022-10-09T02:02:33.994Z,3.93
2022-10-09T02:03:39.345Z,4.40
2022-10-09T02:04:43.529Z,3.93
2022-10-09T02:05:46.854Z,4.00
2022-10-09T02:06:49.075Z,4.23
2022-10-09T02:07:50.793Z,4.63
2022-10-09T02:08:53.960Z,4.47
2022-10-09T02:09:56.981Z,4.80
2022-10-09T02:11:01.425Z,4.57
2022-10-09T02:12:07.946Z,4.90
2022-10-09T02:13:10.037Z,4.87
2022-10-09T02:14:11.861Z,4.40
2022-10-09T02:15:14.576Z,4.20
2022-10-09T02:16:18.889Z,4.40
2022-10-09T02:17:27.077Z,4.10
2022-10-09T02:18:43.600Z,4.37
2022-10-09T02:19:54.542Z,4.70
2022-10-09T02:21:02.057Z,4.40
2022-10-09T02:22:35.538Z,4.53
2022-10-09T02:23:39.687Z,4.57
2022-10-09T02:24:42.460Z,4.40
2022-10-09T02:25:44.315Z,4.77
2022-10-09T02:26:46.009Z,4.53
2022-10-09T02:27:48.351Z,4.43
2022-10-09T02:28:50.270Z,4.70
2022-10-09T02:29:53.155Z,4.63
2022-10-09T02:31:18.693Z,4.10
2022-10-09T02:32:20.849Z,4.00
2022-10-09T02:33:28.133Z,3.83
2022-10-09T02:34:29.834Z,3.87
2022-10-09T02:35:31.763Z,4.00
2022-10-09T02:36:34.459Z,4.20
2022-10-09T02:37:36.160Z,4.20
2022-10-09T02:38:37.859Z,4.37
2022-10-09T02:39:39.537Z,3.80
2022-10-09T02:40:41.204Z,4.20
2022-10-09T02:41:42.982Z,4.00
2022-10-09T02:42:44.673Z,4.43
2022-10-09T02:43:46.419Z,3.70
2022-10-09T02:44:48.172Z,4.40
2022-10-09T02:45:49.824Z,4.13
2022-10-09T02:46:51.751Z,4.30
2022-10-09T02:47:53.556Z,4.90
2022-10-09T02:48:55.366Z,4.17
2022-10-09T02:49:57.151Z,4.03
2022-10-09T02:51:00.180Z,3.77
2022-10-09T02:52:01.899Z,3.77
2022-10-09T02:53:03.644Z,3.93
2022-10-09T02:54:05.625Z,3.73
2022-10-09T02:55:07.659Z,4.17
2022-10-09T02:56:09.479Z,3.90
2022-10-09T02:57:11.132Z,3.83
2022-10-09T02:58:12.803Z,3.87
2022-10-09T02:59:14.539Z,4.30
2022-10-09T03:00:16.367Z,4.10
2022-10-09T03:01:18.750Z,3.90
2022-10-09T03:02:20.622Z,4.30
2022-10-09T03:03:22.414Z,3.63
2022-10-09T03:04:24.131Z,4.13
2022-10-09T03:05:25.825Z,4.10
2022-10-09T03:06:28.925Z,4.10
2022-10-09T03:07:30.746Z,4.50
2022-10-09T03:08:32.462Z,4.10
2022-10-09T03:09:34.244Z,4.40
2022-10-09T03:10:39.147Z,4.87
2022-10-09T03:11:40.947Z,4.37
2022-10-09T03:12:42.690Z,4.30
2022-10-09T03:13:44.862Z,4.10
2022-10-09T03:14:46.543Z,4.00
2022-10-09T03:15:48.299Z,4.00
2022-10-09T03:16:50.050Z,4.03
2022-10-09T03:17:51.711Z,4.33
2022-10-09T03:18:54.102Z,3.77
2022-10-09T03:19:55.752Z,3.70
2022-10-09T03:20:58.006Z,3.80
2022-10-09T03:21:59.681Z,3.93
2022-10-09T03:23:01.350Z,3.80
2022-10-09T03:24:03.186Z,3.67
2022-10-09T03:25:05.919Z,3.77
2022-10-09T03:26:11.128Z,3.20
2022-10-09T03:27:12.885Z,3.30
2022-10-09T03:28:14.690Z,3.77
2022-10-09T03:29:16.446Z,3.90
2022-10-09T03:30:18.159Z,3.80
2022-10-09T03:31:49.943Z,3.90
2022-10-09T03:32:43.838Z,3.70
2022-10-09T03:33:45.659Z,3.50
2022-10-09T03:34:47.366Z,3.40
2022-10-09T03:35:50.233Z,3.70
2022-10-09T03:36:51.995Z,3.40
2022-10-09T03:37:53.659Z,3.87
2022-10-09T03:38:55.357Z,3.67
2022-10-09T03:39:57.242Z,4.00
2022-10-09T03:41:00.479Z,3.70
2022-10-09T03:42:02.261Z,3.67
2022-10-09T03:43:03.998Z,3.80
2022-10-09T03:44:05.784Z,3.80
2022-10-09T03:45:08.047Z,3.63
2022-10-09T03:46:10.908Z,3.57
2022-10-09T03:47:12.717Z,3.30
2022-10-09T03:48:15.120Z,3.73
2022-10-09T03:49:17.104Z,3.97
2022-10-09T03:50:19.064Z,3.50
2022-10-09T03:51:21.177Z,3.20
2022-10-09T03:52:22.897Z,3.40
2022-10-09T03:53:24.640Z,3.63
2022-10-09T03:54:26.732Z,3.57
2022-10-09T03:55:28.458Z,3.20
2022-10-09T03:56:30.317Z,3.83
2022-10-09T03:57:32.011Z,3.50
2022-10-09T03:58:33.702Z,3.40
2022-10-09T03:59:35.433Z,3.57
2022-10-09T04:00:37.499Z,3.80
2022-10-09T04:01:39.193Z,3.33
2022-10-09T04:02:41.069Z,3.93
2022-10-09T04:03:43.029Z,3.23
2022-10-09T04:04:45.165Z,3.80
2022-10-09T04:05:47.153Z,3.87
2022-10-09T04:06:48.860Z,3.87
2022-10-09T04:07:50.747Z,3.50
2022-10-09T04:08:52.801Z,3.37
2022-10-09T04:09:55.575Z,3.57
2022-10-09T04:10:59.174Z,3.83
2022-10-09T04:12:00.835Z,3.67
2022-10-09T04:13:02.683Z,3.67
2022-10-09T04:14:04.583Z,3.20
2022-10-09T04:15:06.887Z,3.50
2022-10-09T04:16:12.748Z,3.67
2022-10-09T04:17:14.706Z,3.57
2022-10-09T04:18:16.375Z,3.47
2022-10-09T04:19:18.121Z,3.60
2022-10-09T04:20:21.002Z,3.53
2022-10-09T04:21:22.731Z,4.00
2022-10-09T04:22:24.491Z,3.70
2022-10-09T04:23:27.922Z,3.60
2022-10-09T04:24:29.820Z,3.37
2022-10-09T04:25:31.891Z,3.70
2022-10-09T04:26:33.747Z,3.20
2022-10-09T04:27:35.445Z,3.60
2022-10-09T04:28:37.303Z,3.50
2022-10-09T04:29:39.455Z,3.60
2022-10-09T04:30:41.433Z,3.70
2022-10-09T04:31:43.197Z,3.57
2022-10-09T04:32:44.983Z,3.53
2022-10-09T04:33:46.748Z,3.20
2022-10-09T04:34:48.647Z,3.70
2022-10-09T04:35:51.999Z,3.47
2022-10-09T04:36:53.755Z,3.47
2022-10-09T04:37:55.560Z,3.27
2022-10-09T04:38:57.307Z,3.47
2022-10-09T04:39:58.964Z,3.17
2022-10-09T04:41:05.934Z,3.03
2022-10-09T04:42:07.903Z,3.73
2022-10-09T04:43:09.951Z,3.00
2022-10-09T04:44:11.783Z,3.33
2022-10-09T04:45:13.434Z,3.60
2022-10-09T04:46:15.500Z,3.50
2022-10-09T04:47:17.607Z,3.10
2022-10-09T04:48:19.375Z,3.90
2022-10-09T04:49:21.127Z,3.40
2022-10-09T04:50:22.850Z,3.73
2022-10-09T04:51:24.527Z,3.40
2022-10-09T04:52:26.336Z,3.43
2022-10-09T04:53:28.064Z,3.70
2022-10-09T04:54:29.839Z,3.40
2022-10-09T04:55:31.646Z,3.37
2022-10-09T04:56:33.437Z,3.37
2022-10-09T04:57:35.267Z,3.43
2022-10-09T04:58:37.235Z,3.50
2022-10-09T04:59:39.075Z,3.80
2022-10-09T05:00:42.662Z,3.63
2022-10-09T05:01:44.486Z,3.30
2022-10-09T05:02:46.430Z,3.30
2022-10-09T05:03:49.007Z,3.27
2022-10-09T05:04:50.735Z,3.33
2022-10-09T05:05:52.533Z,3.50
2022-10-09T05:06:54.227Z,3.87
2022-10-09T05:07:55.908Z,3.43
2022-10-09T05:08:57.641Z,3.37
2022-10-09T05:09:59.319Z,3.43
2022-10-09T05:11:02.072Z,3.43
2022-10-09T05:12:03.803Z,3.10
2022-10-09T05:13:06.797Z,2.90
2022-10-09T05:14:08.521Z,3.43
2022-10-09T05:15:10.547Z,3.13
2022-10-09T05:16:16.183Z,3.90
2022-10-09T05:17:20.771Z,3.37
2022-10-09T05:18:24.742Z,3.03
2022-10-09T05:19:26.513Z,3.37
2022-10-09T05:20:29.526Z,3.10
2022-10-09T05:21:31.528Z,2.93
2022-10-09T05:22:33.284Z,3.30
2022-10-09T05:23:35.696Z,3.33
2022-10-09T05:24:37.395Z,3.23
2022-10-09T05:25:39.095Z,3.30
2022-10-09T05:26:40.832Z,3.47
2022-10-09T05:27:42.530Z,3.30
2022-10-09T05:28:44.933Z,3.47
2022-10-09T05:29:46.728Z,3.13
2022-10-09T05:30:48.594Z,3.00
2022-10-09T05:31:50.555Z,3.70
2022-10-09T05:32:52.385Z,3.63
2022-10-09T05:33:56.127Z,3.27
2022-10-09T05:34:57.850Z,3.63
2022-10-09T05:36:02.615Z,3.10
2022-10-09T05:37:04.374Z,3.33
2022-10-09T05:38:06.036Z,3.30
2022-10-09T05:39:07.714Z,3.23
2022-10-09T05:40:09.657Z,3.20
2022-10-09T05:41:14.141Z,3.03
2022-10-09T05:42:15.892Z,3.10
2022-10-09T05:43:17.899Z,3.30
2022-10-09T05:44:19.598Z,3.30
2022-10-09T05:45:21.377Z,2.97
2022-10-09T05:46:24.986Z,3.17
2022-10-09T05:47:26.679Z,3.00
2022-10-09T05:48:28.408Z,3.50
2022-10-09T05:49:30.115Z,3.50
2022-10-09T05:50:31.863Z,3.30
2022-10-09T05:51:36.411Z,3.50
2022-10-09T05:52:39.991Z,3.53
2022-10-09T05:53:43.140Z,3.20
2022-10-09T05:54:44.880Z,3.33
2022-10-09T05:55:46.543Z,3.20
2022-10-09T05:56:48.418Z,2.70
2022-10-09T05:57:50.655Z,3.10
2022-10-09T05:58:57.749Z,3.50
2022-10-09T05:59:59.427Z,3.00
2022-10-09T06:01:01.254Z,3.47
2022-10-09T06:02:04.287Z,2.93
2022-10-09T06:03:06.049Z,3.33
2022-10-09T06:04:12.361Z,3.10
2022-10-09T06:05:14.353Z,3.03
2022-10-09T06:06:16.539Z,3.70
2022-10-09T06:07:18.200Z,3.10
2022-10-09T06:08:19.935Z,3.23
2022-10-09T06:09:23.830Z,3.90
2022-10-09T06:10:29.012Z,3.47
2022-10-09T06:11:35.556Z,3.57
2022-10-09T06:12:37.289Z,3.90
2022-10-09T06:13:39.466Z,4.10
2022-10-09T06:14:41.140Z,3.63
2022-10-09T06:15:52.525Z,3.77
2022-10-09T06:16:54.344Z,3.93
2022-10-09T06:17:56.031Z,3.60
2022-10-09T06:18:58.365Z,4.13
2022-10-09T06:20:00.092Z,4.27
2022-10-09T06:21:02.685Z,4.13
2022-10-09T06:22:04.341Z,4.10
2022-10-09T06:23:05.994Z,4.03
2022-10-09T06:24:08.213Z,4.10
2022-10-09T06:25:10.118Z,4.00
2022-10-09T06:26:13.651Z,4.07
2022-10-09T06:27:15.723Z,3.40
2022-10-09T06:28:17.405Z,3.60
2022-10-09T06:29:19.222Z,4.27
2022-10-09T06:30:20.877Z,4.43
2022-10-09T06:31:27.792Z,4.40
2022-10-09T06:32:29.631Z,4.30
2022-10-09T06:33:32.597Z,4.63
2022-10-09T06:34:35.016Z,4.60
2022-10-09T06:35:36.751Z,4.60
2022-10-09T06:36:38.484Z,5.10
2022-10-09T06:37:40.175Z,4.23
2022-10-09T06:38:42.814Z,4.60
2022-10-09T06:39:44.504Z,5.00
2022-10-09T06:40:46.150Z,5.00
2022-10-09T06:41:47.871Z,4.90
2022-10-09T06:42:50.456Z,5.00
2022-10-09T06:43:55.148Z,5.27
2022-10-09T06:44:56.799Z,4.57
2022-10-09T06:46:04.171Z,5.13
2022-10-09T06:47:05.891Z,5.03
2022-10-09T06:48:07.550Z,5.40
2022-10-09T06:49:11.470Z,5.07
2022-10-09T06:50:13.257Z,5.53
2022-10-09T06:51:17.622Z,5.57
2022-10-09T06:52:19.310Z,5.53
2022-10-09T06:53:21.002Z,5.70
2022-10-09T06:54:22.672Z,5.60
2022-10-09T06:55:28.639Z,5.67
2022-10-09T06:56:32.078Z,6.93
2022-10-09T06:57:33.761Z,5.90
2022-10-09T06:58:35.979Z,5.00
2022-10-09T06:59:37.641Z,5.30
2022-10-09T07:00:39.299Z,4.90
2022-10-09T07:01:41.091Z,4.80
2022-10-09T07:02:44.245Z,4.77
2022-10-09T07:03:48.683Z,4.90
2022-10-09T07:04:50.335Z,5.20
2022-10-09T07:05:52.331Z,5.17
2022-10-09T07:06:54.059Z,4.57
2022-10-09T07:07:55.747Z,5.53
2022-10-09T07:09:03.479Z,5.73
2022-10-09T07:10:05.590Z,5.43
2022-10-09T07:11:16.881Z,5.30
2022-10-09T07:12:18.849Z,4.90
2022-10-09T07:13:20.508Z,5.10
2022-10-09T07:14:22.198Z,5.47
2022-10-09T07:15:23.862Z,4.90
2022-10-09T07:16:28.591Z,5.43
2022-10-09T07:17:30.393Z,5.17
2022-10-09T07:18:34.084Z,4.40
2022-10-09T07:19:35.845Z,5.10
2022-10-09T07:20:37.560Z,4.53
2022-10-09T07:21:42.270Z,4.77
2022-10-09T07:22:43.998Z,5.60
2022-10-09T07:23:46.300Z,4.90
2022-10-09T07:24:50.287Z,5.50
2022-10-09T07:25:51.971Z,5.40
2022-10-09T07:26:56.816Z,5.90
2022-10-09T07:27:58.514Z,6.13
2022-10-09T07:29:00.582Z,5.87
2022-10-09T07:30:02.326Z,5.70
2022-10-09T07:31:05.028Z,5.67
2022-10-09T07:32:10.310Z,6.20
2022-10-09T07:33:12.360Z,5.90
2022-10-09T07:34:14.143Z,6.60
2022-10-09T07:35:15.891Z,6.53
2022-10-09T07:36:18.324Z,6.13
2022-10-09T07:37:20.040Z,6.90
2022-10-09T07:38:22.522Z,6.37
2022-10-09T07:39:24.225Z,8.00
2022-10-09T07:40:26.054Z,7.37
2022-10-09T07:41:29.424Z,7.23
2022-10-09T07:42:31.088Z,6.93
2022-10-09T07:43:35.769Z,7.82
2022-10-09T07:44:37.501Z,6.70
2022-10-09T07:45:39.215Z,7.20
2022-10-09T07:46:40.975Z,7.60
2022-10-09T07:47:42.725Z,7.20
2022-10-09T07:48:44.647Z,7.83
2022-10-09T07:49:46.405Z,7.63
2022-10-09T07:50:48.112Z,7.27
2022-10-09T07:51:49.888Z,7.83
2022-10-09T07:52:52.102Z,7.07
2022-10-09T07:53:54.322Z,7.03
2022-10-09T07:54:56.105Z,7.23
2022-10-09T07:55:57.753Z,7.67
2022-10-09T07:56:59.423Z,6.60
2022-10-09T07:58:01.108Z,7.03
2022-10-09T07:59:06.316Z,7.13
2022-10-09T08:00:08.643Z,7.00
2022-10-09T08:01:10.805Z,6.33
2022-10-09T08:02:12.593Z,6.93
2022-10-09T08:03:14.315Z,7.70
2022-10-09T08:04:15.981Z,8.00
2022-10-09T08:05:17.653Z,7.38
2022-10-09T08:06:20.155Z,8.37
2022-10-09T08:07:21.860Z,7.72
2022-10-09T08:08:23.761Z,7.33
2022-10-09T08:09:25.726Z,7.83
2022-10-09T08:10:30.964Z,8.20
2022-10-09T08:11:33.124Z,7.32
2022-10-09T08:12:34.789Z,7.28
2022-10-09T08:13:36.504Z,7.80
2022-10-09T08:14:38.156Z,6.47
2022-10-09T08:15:41.495Z,6.80
2022-10-09T08:16:43.231Z,7.20
2022-10-09T08:17:44.906Z,7.53
2022-10-09T08:18:47.862Z,7.40
2022-10-09T08:19:49.597Z,7.50
2022-10-09T08:20:59.619Z,7.27
2022-10-09T08:22:03.596Z,6.53
2022-10-09T08:23:05.655Z,6.43
2022-10-09T08:24:07.385Z,6.07
2022-10-09T08:25:09.331Z,6.30
2022-10-09T08:26:16.693Z,7.30
2022-10-09T08:27:18.525Z,7.88
2022-10-09T08:28:20.499Z,6.50
2022-10-09T08:29:22.213Z,6.30
2022-10-09T08:30:24.214Z,5.85
2022-10-09T08:31:27.744Z,6.28
2022-10-09T08:32:29.562Z,6.72
2022-10-09T08:33:31.288Z,6.50
2022-10-09T08:34:32.979Z,6.37
2022-10-09T08:35:34.804Z,7.38
2022-10-09T08:36:36.557Z,6.63
2022-10-09T08:37:38.292Z,6.10
2022-10-09T08:38:48.288Z,6.50
2022-10-09T08:39:50.212Z,5.70
2022-10-09T08:41:17.612Z,6.15
2022-10-09T08:42:38.984Z,5.10
2022-10-09T08:43:45.325Z,5.47
2022-10-09T08:44:49.105Z,5.37
2022-10-09T08:45:52.159Z,5.30
2022-10-09T08:47:09.031Z,4.55
2022-10-09T08:48:20.700Z,5.70
2022-10-09T08:49:22.726Z,5.38
2022-10-09T08:50:49.554Z,5.13
2022-10-09T08:51:51.862Z,4.70
2022-10-09T08:53:03.370Z,4.97
2022-10-09T08:54:34.484Z,5.25
2022-10-09T08:55:43.451Z,5.10
2022-10-09T08:56:46.918Z,5.05
2022-10-09T08:57:52.097Z,5.18
2022-10-09T08:58:53.884Z,4.60
2022-10-09T08:59:56.639Z,5.13
2022-10-09T09:01:26.160Z,4.68
2022-10-09T09:02:35.598Z,4.37
2022-10-09T09:04:15.251Z,4.77
2022-10-09T09:05:35.535Z,4.70
2022-10-09T09:07:00.860Z,4.65
2022-10-09T09:08:05.311Z,8.18
2022-10-09T09:09:18.531Z,6.78
2022-10-09T09:10:33.203Z,4.57
2022-10-09T09:12:00.110Z,3.92
2022-10-09T09:13:27.308Z,3.83
2022-10-09T09:14:47.255Z,4.45
2022-10-09T09:16:15.500Z,2.67
2022-10-09T09:17:22.964Z,2.60
2022-10-09T09:18:52.266Z,2.75
2022-10-09T09:20:16.304Z,2.45
2022-10-09T09:21:32.360Z,2.45
2022-10-09T09:22:38.547Z,2.58
2022-10-09T09:23:44.353Z,2.53
2022-10-09T09:24:54.201Z,11.02
2022-10-09T09:25:56.437Z,3.70
2022-10-09T09:27:04.330Z,2.25
2022-10-09T09:28:34.090Z,2.35
2022-10-09T09:29:59.261Z,2.30
2022-10-09T09:31:12.992Z,2.22
2022-10-09T09:32:23.881Z,2.17
2022-10-09T09:33:41.013Z,2.03
2022-10-09T09:34:45.642Z,2.03
2022-10-09T09:36:09.070Z,2.05
2022-10-09T09:37:11.980Z,2.10
2022-10-09T09:38:15.090Z,2.15
2022-10-09T09:40:41.390Z,2.00
2022-10-09T09:41:45.033Z,1.90
2022-10-09T09:42:47.529Z,1.75
2022-10-09T09:43:49.413Z,2.17
2022-10-09T09:45:06.585Z,1.92
2022-10-09T09:46:18.292Z,1.60
2022-10-09T09:47:27.856Z,1.80
2022-10-09T09:48:37.036Z,1.92
2022-10-09T09:49:38.768Z,1.98
2022-10-09T09:50:50.589Z,1.60
2022-10-09T09:52:02.113Z,1.88
2022-10-09T09:53:25.440Z,2.00
2022-10-09T09:54:30.056Z,1.75
2022-10-09T09:55:33.483Z,1.92
2022-10-09T09:57:06.885Z,2.42
2022-10-09T09:58:14.781Z,1.60
2022-10-09T09:59:40.039Z,1.67
2022-10-09T10:00:41.812Z,1.90
2022-10-09T10:01:44.059Z,1.88
2022-10-09T10:02:46.273Z,1.75
2022-10-09T10:03:50.715Z,1.73
2022-10-09T10:05:09.211Z,1.75
2022-10-09T10:06:32.688Z,1.52
2022-10-09T10:07:38.756Z,1.70
2022-10-09T10:08:40.432Z,1.70
2022-10-09T10:09:42.094Z,1.55
2022-10-09T10:10:47.896Z,1.70
2022-10-09T10:11:59.895Z,1.50
2022-10-09T10:13:01.648Z,1.65
2022-10-09T10:14:08.777Z,1.83
2022-10-09T10:15:31.894Z,1.73
2022-10-09T10:16:36.634Z,1.85
2022-10-09T10:17:39.114Z,2.00
2022-10-09T10:18:43.315Z,1.90
2022-10-09T10:19:50.730Z,1.92
2022-10-09T10:21:07.072Z,1.80
2022-10-09T10:22:24.210Z,1.50
2022-10-09T10:23:32.926Z,1.88
2022-10-09T10:24:43.178Z,2.00
2022-10-09T10:25:44.878Z,1.55
2022-10-09T10:26:57.974Z,1.70
2022-10-09T10:28:24.913Z,1.27
2022-10-09T10:29:41.180Z,1.75
2022-10-09T10:30:43.778Z,1.60
2022-10-09T10:31:54.872Z,1.80
2022-10-09T10:33:05.514Z,1.83
2022-10-09T10:34:18.162Z,1.77
2022-10-09T10:35:35.934Z,2.03
2022-10-09T10:36:37.694Z,1.70
2022-10-09T10:37:47.723Z,1.42
2022-10-09T10:38:58.787Z,1.70
2022-10-09T10:40:27.755Z,1.40
2022-10-09T10:41:39.995Z,1.75
2022-10-09T10:43:03.553Z,1.58
2022-10-09T10:44:26.450Z,1.30
2022-10-09T10:45:39.080Z,1.33
2022-10-09T10:46:54.717Z,1.75
2022-10-09T10:47:58.375Z,1.73
2022-10-09T10:49:00.535Z,1.70
2022-10-09T10:50:02.426Z,1.85
2022-10-09T10:51:22.299Z,1.80
2022-10-09T10:52:30.143Z,1.70
2022-10-09T10:53:50.734Z,1.48
2022-10-09T10:55:16.053Z,1.55
2022-10-09T10:56:32.652Z,1.48
2022-10-09T10:57:50.606Z,1.38
2022-10-09T10:59:08.016Z,1.50
2022-10-09T11:00:11.443Z,1.60
2022-10-09T11:01:13.204Z,1.20
2022-10-09T11:02:32.625Z,1.52
2022-10-09T11:03:43.900Z,1.40
2022-10-09T11:05:20.164Z,1.42
2022-10-09T11:06:55.414Z,1.63
2022-10-09T11:08:00.347Z,1.35
2022-10-09T11:09:20.974Z,1.40
2022-10-09T11:10:59.428Z,1.30
2022-10-09T11:12:30.004Z,1.60
2022-10-09T11:13:58.425Z,1.60
2022-10-09T11:15:19.554Z,1.40
2022-10-09T11:16:49.310Z,1.60
2022-10-09T11:17:59.015Z,1.40
2022-10-09T11:19:06.581Z,1.67
2022-10-09T11:20:08.609Z,1.63
2022-10-09T11:21:20.495Z,1.45
2022-10-09T11:22:46.825Z,1.20
2022-10-09T11:24:26.940Z,1.45
2022-10-09T11:25:49.406Z,1.27
2022-10-09T11:27:18.687Z,1.70
2022-10-09T11:28:37.396Z,1.40
2022-10-09T11:29:47.822Z,1.50
2022-10-09T11:31:08.419Z,1.23
2022-10-09T11:32:38.675Z,1.50
2022-10-09T11:33:50.966Z,1.58
2022-10-09T11:35:02.119Z,1.70
2022-10-09T11:36:33.079Z,1.20
2022-10-09T11:37:39.316Z,1.63
2022-10-09T11:38:54.591Z,1.52
2022-10-09T11:39:56.985Z,1.40
2022-10-09T11:41:00.697Z,1.60
2022-10-09T11:42:03.472Z,1.60
2022-10-09T11:43:25.519Z,1.48
2022-10-09T11:44:45.966Z,1.30
2022-10-09T11:46:19.061Z,1.50
2022-10-09T11:47:34.221Z,1.42
2022-10-09T11:48:47.975Z,1.30
2022-10-09T11:50:10.889Z,1.25
2022-10-09T11:51:19.065Z,1.60
2022-10-09T11:53:02.556Z,1.20
2022-10-09T11:54:10.590Z,1.30
2022-10-09T11:55:32.448Z,1.52
2022-10-09T11:56:34.886Z,1.33
2022-10-09T11:57:36.596Z,1.40
2022-10-09T11:58:38.278Z,1.20
2022-10-09T11:59:43.201Z,1.48
2022-10-09T12:00:45.999Z,1.50
2022-10-09T12:01:48.227Z,1.50
2022-10-09T12:03:01.556Z,1.50
2022-10-09T12:04:08.139Z,2.10
2022-10-09T12:05:18.245Z,1.50
2022-10-09T12:06:22.330Z,1.50
2022-10-09T12:07:34.445Z,1.48
2022-10-09T12:08:38.317Z,1.20
2022-10-09T12:09:43.435Z,1.42
2022-10-09T12:10:54.982Z,1.33
2022-10-09T12:12:03.528Z,1.40
2022-10-09T12:13:08.307Z,1.48
2022-10-09T12:14:23.242Z,1.60
2022-10-09T12:15:35.597Z,1.40
2022-10-09T12:16:39.849Z,1.52
2022-10-09T12:17:49.787Z,1.30
2022-10-09T12:18:52.119Z,1.13
2022-10-09T12:20:00.896Z,1.30
2022-10-09T12:21:07.472Z,1.35
2022-10-09T12:22:33.502Z,1.40
2022-10-09T12:23:39.848Z,1.50
2022-10-09T12:24:55.707Z,1.17
2022-10-09T12:25:58.775Z,1.38
2022-10-09T12:27:03.262Z,1.70
2022-10-09T12:28:06.172Z,1.52
2022-10-09T12:29:19.242Z,1.80
2022-10-09T12:30:24.674Z,1.50
2022-10-09T12:31:30.903Z,1.30
2022-10-09T12:32:37.441Z,1.58
2022-10-09T12:33:46.073Z,1.25
2022-10-09T12:34:49.808Z,1.23
2022-10-09T12:36:18.033Z,1.23
2022-10-09T12:37:33.117Z,1.60
2022-10-09T12:38:34.892Z,1.40
2022-10-09T12:39:37.757Z,1.40
2022-10-09T12:40:46.684Z,1.38
2022-10-09T12:41:51.978Z,1.60
2022-10-09T12:42:55.690Z,1.40
2022-10-09T12:43:58.309Z,1.30
2022-10-09T12:45:00.079Z,1.40
2022-10-09T12:46:02.139Z,1.60
2022-10-09T12:47:13.051Z,1.50
2022-10-09T12:48:18.806Z,1.85
2022-10-09T12:49:24.108Z,2.20
2022-10-09T12:50:30.880Z,2.15
2022-10-09T12:51:33.446Z,2.78
2022-10-09T12:52:35.165Z,2.13
2022-10-09T12:53:50.009Z,3.28
2022-10-09T12:54:51.683Z,4.95
2022-10-09T12:56:00.442Z,4.38
2022-10-09T12:57:02.547Z,3.50
2022-10-09T12:58:39.441Z,2.10
2022-10-09T12:59:42.436Z,2.08
2022-10-09T13:00:47.397Z,2.60
2022-10-09T13:01:53.555Z,2.20
2022-10-09T13:02:55.869Z,1.70
2022-10-09T13:04:00.045Z,1.33
2022-10-09T13:05:02.314Z,1.40
2022-10-09T13:06:07.448Z,2.30
2022-10-09T13:07:21.015Z,2.67
2022-10-09T13:08:28.748Z,2.17
2022-10-09T13:09:37.188Z,1.50
2022-10-09T13:10:38.859Z,1.42
2022-10-09T13:11:51.410Z,1.65
2022-10-09T13:12:56.299Z,1.13
2022-10-09T13:13:58.249Z,1.40
2022-10-09T13:15:06.738Z,1.20
2022-10-09T13:16:10.657Z,1.17
2022-10-09T13:17:33.855Z,1.65
2022-10-09T13:18:36.944Z,1.60
2022-10-09T13:19:38.657Z,1.63
2022-10-09T13:20:40.441Z,2.00
2022-10-09T13:21:42.188Z,1.48
2022-10-09T13:22:59.241Z,1.50
2022-10-09T13:24:12.003Z,1.60
2022-10-09T13:25:13.727Z,1.45
2022-10-09T13:26:29.993Z,1.70
2022-10-09T13:27:35.164Z,2.00
2022-10-09T13:28:36.931Z,2.20
2022-10-09T13:29:38.981Z,2.40
2022-10-09T13:30:40.762Z,2.25
2022-10-09T13:31:45.909Z,2.72
2022-10-09T13:32:47.668Z,2.63
2022-10-09T13:33:49.886Z,1.75
2022-10-09T13:34:55.080Z,1.70
2022-10-09T13:35:56.810Z,2.08
2022-10-09T13:36:58.851Z,3.05
2022-10-09T13:38:00.609Z,4.65
2022-10-09T13:39:02.261Z,4.80
2022-10-09T13:40:05.859Z,3.42
2022-10-09T13:41:09.806Z,3.58
2022-10-09T13:42:16.002Z,4.22
2022-10-09T13:43:26.019Z,4.45
2022-10-09T13:44:27.869Z,3.10
2022-10-09T13:45:29.536Z,4.00
2022-10-09T13:46:31.246Z,4.00
2022-10-09T13:47:33.259Z,4.63
2022-10-09T13:48:35.154Z,4.05
2022-10-09T13:49:36.924Z,3.60
2022-10-09T13:50:38.798Z,2.30
2022-10-09T13:51:40.588Z,2.42
2022-10-09T13:52:42.738Z,2.80
2022-10-09T13:53:44.461Z,2.95
2022-10-09T13:54:46.206Z,2.58
2022-10-09T13:55:48.043Z,2.30
2022-10-09T13:56:49.787Z,2.30
2022-10-09T13:57:52.305Z,2.35
2022-10-09T13:58:54.342Z,2.20
2022-10-09T13:59:56.002Z,2.70
2022-10-09T14:00:58.324Z,2.72
2022-10-09T14:02:00.233Z,3.00
2022-10-09T14:03:01.936Z,3.65
2022-10-09T14:04:03.766Z,3.47
2022-10-09T14:05:05.884Z,3.47
2022-10-09T14:06:07.721Z,3.30
2022-10-09T14:07:09.432Z,3.65
2022-10-09T14:08:12.013Z,3.15
2022-10-09T14:09:13.736Z,2.92
2022-10-09T14:10:17.401Z,3.28
2022-10-09T14:11:22.144Z,3.40
2022-10-09T14:12:23.871Z,2.85
2022-10-09T14:13:25.611Z,2.20
2022-10-09T14:14:27.324Z,2.28
2022-10-09T14:15:29.008Z,1.80
2022-10-09T14:16:31.475Z,1.83
2022-10-09T14:17:33.127Z,6.88
2022-10-09T14:18:34.881Z,1.90
2022-10-09T14:19:36.611Z,2.00
2022-10-09T14:20:38.382Z,2.03
2022-10-09T14:21:40.277Z,1.55
2022-10-09T14:22:41.995Z,2.00
2022-10-09T14:23:43.765Z,1.90
2022-10-09T14:24:45.504Z,3.90
2022-10-09T14:25:47.236Z,5.47
2022-10-09T14:26:51.626Z,3.35
2022-10-09T14:27:53.906Z,2.55
2022-10-09T14:28:59.370Z,2.25
2022-10-09T14:30:01.184Z,2.15
2022-10-09T14:31:07.208Z,1.95
2022-10-09T14:32:08.988Z,1.98
2022-10-09T14:33:12.406Z,2.20
2022-10-09T14:34:14.772Z,3.33
2022-10-09T14:35:20.579Z,4.30
2022-10-09T14:36:23.631Z,3.50
2022-10-09T14:37:42.215Z,3.03
2022-10-09T14:38:44.769Z,3.15
2022-10-09T14:39:46.804Z,3.80
2022-10-09T14:40:48.521Z,3.00